Time;durP1;ratioP1;P1;durP2;ratioP2;P2;SDS_P1;SDS_P2;PMS_P1;PMS_P2;Temp;Humidity;BMP_temperature;BMP_pressure;BME280_temperature;BME280_humidity;BME280_pressure;Samples;Min_cycle;Max_cycle;Signal;HPM_P1;HPM_P2
2022/04/16 00:01:27;;;;;;;2.40;1.80;;;;;;;;;;5036746;28;20458;-74
2022/04/16 00:03:55;;;;;;;3.10;1.80;;;;;;;;;;4992989;28;20453;-75
2022/04/16 00:06:24;;;;;;;2.77;1.83;;;;;;;;;;5004167;28;20441;-74
2022/04/16 00:08:50;;;;;;;2.30;1.80;;;;;;;;;;5010764;28;20441;-75
2022/04/16 00:11:27;;;;;;;3.10;2.20;;;;;;;;;;5024076;28;20437;-74
2022/04/16 00:13:53;;;;;;;3.00;1.80;;;;;;;;;;4996798;28;20603;-74
2022/04/16 00:16:28;;;;;;;3.20;2.10;;;;;;;;;;5005652;28;20892;-74
2022/04/16 00:18:56;;;;;;;2.43;2.10;;;;;;;;;;4989706;28;20550;-74
2022/04/16 00:21:26;;;;;;;2.60;2.00;;;;;;;;;;5005065;28;20432;-75
2022/04/16 00:23:55;;;;;;;2.20;1.80;;;;;;;;;;4990291;28;20563;-74
2022/04/16 00:26:21;;;;;;;2.33;1.77;;;;;;;;;;5003196;28;20444;-76
2022/04/16 00:28:50;;;;;;;2.63;1.93;;;;;;;;;;4991468;28;20470;-75
2022/04/16 00:31:26;;;;;;;3.40;2.10;;;;;;;;;;5017960;28;21023;-74
2022/04/16 00:33:53;;;;;;;2.97;2.23;;;;;;;;;;5007680;28;20572;-75
2022/04/16 00:36:20;;;;;;;2.97;2.57;;;;;;;;;;5001073;28;20504;-75
2022/04/16 00:38:46;;;;;;;2.60;2.07;;;;;;;;;;4985627;28;20927;-75
2022/04/16 00:41:13;;;;;;;2.20;2.00;;;;;;;;;;5014369;28;20455;-74
2022/04/16 00:43:39;;;;;;;1.90;1.57;;;;;;;;;;5001635;28;20523;-73
2022/04/16 00:46:08;;;;;;;1.73;1.63;;;;;;;;;;5009101;28;20448;-74
2022/04/16 00:48:34;;;;;;;4.70;2.17;;;;;;;;;;4986159;28;20500;-75
2022/04/16 00:51:01;;;;;;;3.23;1.87;;;;;;;;;;5005547;28;20437;-76
2022/04/16 00:53:30;;;;;;;2.40;2.20;;;;;;;;;;4994720;28;20480;-76
2022/04/16 00:56:18;;;;;;;3.20;2.00;;;;;;;;;;5008749;28;20461;-75
2022/04/16 00:58:44;;;;;;;2.87;2.07;;;;;;;;;;4996104;28;20447;-75
2022/04/16 01:01:10;;;;;;;3.90;2.00;;;;;;;;;;5013181;28;20444;-74
2022/04/16 01:03:43;;;;;;;3.63;2.23;;;;;;;;;;5006048;28;20514;-74
2022/04/16 01:06:18;;;;;;;1.57;1.40;;;;;;;;;;5013085;28;20464;-75
2022/04/16 01:08:44;;;;;;;3.73;2.60;;;;;;;;;;4985749;28;20435;-76
2022/04/16 01:11:14;;;;;;;2.60;2.00;;;;;;;;;;5010503;28;20442;-74
2022/04/16 01:13:40;;;;;;;2.03;1.50;;;;;;;;;;5010307;28;20497;-75
2022/04/16 01:16:10;;;;;;;2.00;1.80;;;;;;;;;;5009095;28;20424;-75
2022/04/16 01:21:45;;;;;;;2.30;1.60;;;;;;;;;;4989830;28;20463;-74
2022/04/16 01:24:11;;;;;;;2.40;2.00;;;;;;;;;;4999134;28;20524;-75
2022/04/16 01:26:38;;;;;;;2.60;2.00;;;;;;;;;;5008868;28;20432;-75
2022/04/16 01:29:07;;;;;;;2.40;1.70;;;;;;;;;;5013846;28;20457;-75
2022/04/16 01:31:39;;;;;;;3.77;2.50;;;;;;;;;;5008409;28;20440;-73
2022/04/16 01:34:14;;;;;;;2.90;1.73;;;;;;;;;;5004778;28;20570;-74
2022/04/16 01:36:40;;;;;;;2.80;2.00;;;;;;;;;;5023156;28;21282;-74
2022/04/16 01:39:13;;;;;;;2.20;1.80;;;;;;;;;;5005988;28;20486;-74
2022/04/16 01:41:40;;;;;;;2.90;2.50;;;;;;;;;;5006789;28;20517;-73
2022/04/16 01:44:07;;;;;;;2.00;1.80;;;;;;;;;;4991103;28;21054;-74
2022/04/16 01:49:20;;;;;;;3.17;2.30;;;;;;;;;;5011849;28;20528;-74
2022/04/16 01:51:46;;;;;;;2.23;1.70;;;;;;;;;;5033720;28;20437;-74
2022/04/16 01:54:12;;;;;;;3.07;2.43;;;;;;;;;;5017799;28;20866;-74
2022/04/16 01:56:39;;;;;;;2.83;1.97;;;;;;;;;;5005450;28;20437;-74
2022/04/16 01:59:08;;;;;;;3.63;1.90;;;;;;;;;;4973332;28;20432;-75
2022/04/16 02:01:34;;;;;;;2.97;2.00;;;;;;;;;;5002937;28;21217;-75
2022/04/16 02:04:04;;;;;;;3.07;2.37;;;;;;;;;;5002578;28;20457;-73
2022/04/16 02:06:30;;;;;;;3.70;2.10;;;;;;;;;;5002823;28;20467;-74
2022/04/16 02:08:56;;;;;;;2.77;2.20;;;;;;;;;;4998116;28;20782;-74
2022/04/16 02:11:25;;;;;;;2.70;1.97;;;;;;;;;;5004314;28;20453;-73
2022/04/16 02:13:51;;;;;;;2.80;1.93;;;;;;;;;;5016267;28;20534;-74
2022/04/16 02:16:17;;;;;;;2.40;1.80;;;;;;;;;;5006676;28;20452;-75
2022/04/16 02:18:43;;;;;;;3.40;2.20;;;;;;;;;;4959038;28;21989;-74
2022/04/16 02:21:10;;;;;;;4.97;1.70;;;;;;;;;;5004500;28;20433;-74
2022/04/16 02:23:36;;;;;;;3.40;2.30;;;;;;;;;;4989136;28;20587;-74
2022/04/16 02:26:10;;;;;;;2.80;2.00;;;;;;;;;;5007160;28;20856;-74
2022/04/16 02:31:40;;;;;;;2.13;1.93;;;;;;;;;;4988286;28;20531;-75
2022/04/16 02:34:28;;;;;;;3.33;2.13;;;;;;;;;;4996985;28;20550;-76
2022/04/16 02:36:57;;;;;;;8.43;2.17;;;;;;;;;;5018616;28;20441;-76
2022/04/16 02:39:27;;;;;;;3.03;2.07;;;;;;;;;;4986948;28;20437;-75
2022/04/16 02:41:53;;;;;;;2.43;2.03;;;;;;;;;;5006067;28;20516;-74
2022/04/16 02:47:23;;;;;;;2.03;1.70;;;;;;;;;;4996901;28;20464;-74
2022/04/16 02:49:50;;;;;;;2.40;1.80;;;;;;;;;;4998905;28;20965;-75
2022/04/16 02:52:16;;;;;;;3.33;1.90;;;;;;;;;;5005802;28;20468;-73
2022/04/16 02:54:43;;;;;;;3.20;2.13;;;;;;;;;;4982557;28;20468;-75
2022/04/16 02:57:09;;;;;;;5.83;2.20;;;;;;;;;;5006376;28;21374;-75
2022/04/16 02:59:35;;;;;;;2.20;1.60;;;;;;;;;;4981545;28;20445;-74
2022/04/16 03:02:02;;;;;;;4.90;2.43;;;;;;;;;;5001339;28;20482;-73
2022/04/16 03:04:28;;;;;;;2.17;1.97;;;;;;;;;;4992338;28;21427;-75
2022/04/16 03:06:55;;;;;;;2.30;1.90;;;;;;;;;;5000339;28;20968;-76
2022/04/16 03:09:25;;;;;;;2.40;1.93;;;;;;;;;;4988140;28;20457;-75
2022/04/16 03:11:51;;;;;;;2.93;2.47;;;;;;;;;;5016197;28;21030;-74
2022/04/16 03:17:34;;;;;;;2.13;1.73;;;;;;;;;;5001067;28;20498;-75
2022/04/16 03:20:44;;;;;;;2.63;1.87;;;;;;;;;;4992311;28;20432;-74
2022/04/16 03:23:03;;;;;;;2.90;2.53;;;;;;;;;;5006981;28;20447;-75
2022/04/16 03:25:29;;;;;;;2.57;2.07;;;;;;;;;;4996078;28;20465;-73
2022/04/16 03:27:56;;;;;;;6.90;2.33;;;;;;;;;;5009449;28;20445;-74
2022/04/16 03:30:23;;;;;;;2.13;1.90;;;;;;;;;;4988698;28;20432;-75
2022/04/16 03:33:00;;;;;;;2.93;2.10;;;;;;;;;;5010369;28;20490;-75
2022/04/16 03:35:26;;;;;;;2.50;1.80;;;;;;;;;;4993386;28;20458;-75
2022/04/16 03:38:01;;;;;;;3.83;2.10;;;;;;;;;;5006566;28;20444;-75
2022/04/16 03:40:30;;;;;;;2.87;2.40;;;;;;;;;;4967306;28;20942;-75
2022/04/16 03:43:00;;;;;;;3.70;2.07;;;;;;;;;;5011875;28;20468;-74
2022/04/16 03:45:28;;;;;;;4.33;2.20;;;;;;;;;;5002452;28;20457;-75
2022/04/16 03:47:54;;;;;;;2.57;2.10;;;;;;;;;;5004121;28;20425;-76
2022/04/16 03:50:20;;;;;;;2.40;2.20;;;;;;;;;;4980936;28;20956;-75
2022/04/16 03:52:47;;;;;;;2.20;1.80;;;;;;;;;;5008413;28;20579;-75
2022/04/16 04:00:44;;;;;;;2.27;1.87;;;;;;;;;;4995070;28;20448;-74
2022/04/16 04:03:13;;;;;;;2.30;1.60;;;;;;;;;;5002611;28;20461;-74
2022/04/16 04:05:40;;;;;;;3.43;1.90;;;;;;;;;;5027815;28;20460;-75
2022/04/16 04:08:06;;;;;;;3.70;2.40;;;;;;;;;;5001180;28;20436;-75
2022/04/16 04:10:36;;;;;;;3.50;2.50;;;;;;;;;;4995795;28;20635;-75
2022/04/16 04:13:02;;;;;;;2.83;2.10;;;;;;;;;;5004341;28;20512;-75
2022/04/16 04:15:29;;;;;;;2.80;2.40;;;;;;;;;;4994410;28;20484;-74
2022/04/16 04:17:55;;;;;;;3.50;1.87;;;;;;;;;;5002785;28;20444;-77
2022/04/16 04:20:21;;;;;;;2.17;1.73;;;;;;;;;;4978095;28;20505;-75
2022/04/16 04:22:50;;;;;;;4.20;2.30;;;;;;;;;;5009965;28;20664;-75
2022/04/16 04:25:16;;;;;;;3.10;2.07;;;;;;;;;;4980664;28;20798;-76
2022/04/16 04:27:42;;;;;;;2.93;2.37;;;;;;;;;;5007370;28;20875;-77
2022/04/16 04:30:09;;;;;;;4.20;3.00;;;;;;;;;;4970553;28;21089;-77
2022/04/16 04:32:36;;;;;;;2.77;2.50;;;;;;;;;;5002806;28;20480;-76
2022/04/16 04:35:03;;;;;;;3.23;2.00;;;;;;;;;;5008750;28;20456;-75
2022/04/16 04:37:29;;;;;;;4.03;2.60;;;;;;;;;;4999094;28;20447;-76
2022/04/16 04:40:14;;;;;;;3.33;2.80;;;;;;;;;;5015013;28;20464;-77
2022/04/16 04:42:40;;;;;;;2.27;2.07;;;;;;;;;;5002274;28;20627;-77
2022/04/16 04:45:21;;;;;;;3.23;2.57;;;;;;;;;;5001084;28;20876;-78
2022/04/16 04:47:53;;;;;;;3.10;2.50;;;;;;;;;;4996824;28;20450;-76
2022/04/16 04:50:29;;;;;;;2.70;2.03;;;;;;;;;;5000639;28;20498;-75
2022/04/16 04:52:58;;;;;;;3.07;2.33;;;;;;;;;;5004239;28;21168;-75
2022/04/16 04:55:25;;;;;;;2.67;2.03;;;;;;;;;;5006200;28;20471;-76
2022/04/16 04:57:54;;;;;;;3.17;2.30;;;;;;;;;;5011080;28;20779;-78
2022/04/16 05:00:20;;;;;;;4.03;2.20;;;;;;;;;;4984771;28;20552;-76
2022/04/16 05:02:49;;;;;;;3.23;2.47;;;;;;;;;;4999000;28;20449;-75
2022/04/16 05:05:16;;;;;;;2.70;2.40;;;;;;;;;;4945989;28;20590;-76
2022/04/16 05:07:42;;;;;;;3.00;2.30;;;;;;;;;;5000575;28;20472;-76
2022/04/16 05:10:09;;;;;;;3.50;2.47;;;;;;;;;;5007476;28;20483;-76
2022/04/16 05:12:45;;;;;;;2.40;1.80;;;;;;;;;;5029062;28;20472;-75
2022/04/16 05:15:11;;;;;;;2.30;1.87;;;;;;;;;;4980829;28;20448;-75
2022/04/16 05:17:37;;;;;;;2.50;2.30;;;;;;;;;;5004147;28;20512;-74
2022/04/16 05:20:09;;;;;;;4.70;2.70;;;;;;;;;;4987983;28;20440;-74
2022/04/16 05:22:35;;;;;;;3.00;2.23;;;;;;;;;;5004010;28;20448;-74
2022/04/16 05:25:01;;;;;;;3.03;2.53;;;;;;;;;;4984919;28;20560;-74
2022/04/16 05:27:30;;;;;;;6.63;2.30;;;;;;;;;;5000279;28;20459;-77
2022/04/16 05:30:06;;;;;;;3.20;1.90;;;;;;;;;;4990428;28;20444;-74
2022/04/16 05:32:36;;;;;;;3.57;2.70;;;;;;;;;;5002579;28;20472;-75
2022/04/16 05:35:03;;;;;;;4.60;2.90;;;;;;;;;;4987326;28;20453;-75
2022/04/16 05:37:29;;;;;;;3.60;2.80;;;;;;;;;;5014104;28;20447;-76
2022/04/16 05:39:55;;;;;;;2.93;2.20;;;;;;;;;;4991196;28;20468;-76
2022/04/16 05:42:21;;;;;;;2.73;2.37;;;;;;;;;;5006367;28;20613;-76
2022/04/16 05:44:52;;;;;;;3.20;2.90;;;;;;;;;;5004389;28;20471;-72
2022/04/16 05:47:18;;;;;;;2.60;2.23;;;;;;;;;;4966628;28;20485;-74
2022/04/16 05:49:44;;;;;;;3.30;2.50;;;;;;;;;;4954907;28;20441;-75
2022/04/16 05:52:10;;;;;;;3.37;2.93;;;;;;;;;;4979262;28;20193;-74
2022/04/16 05:54:36;;;;;;;2.97;2.63;;;;;;;;;;4975620;28;20569;-75
2022/04/16 05:57:02;;;;;;;3.00;2.33;;;;;;;;;;5002007;28;20436;-75
2022/04/16 05:59:28;;;;;;;3.90;3.00;;;;;;;;;;4982191;28;20551;-75
2022/04/16 06:01:54;;;;;;;3.83;3.27;;;;;;;;;;5005317;28;20482;-75
2022/04/16 06:04:20;;;;;;;3.20;2.70;;;;;;;;;;4999857;28;20866;-75
2022/04/16 06:06:49;;;;;;;3.27;2.93;;;;;;;;;;4999834;28;20436;-74
2022/04/16 06:09:15;;;;;;;4.60;2.93;;;;;;;;;;4976857;28;20272;-74
2022/04/16 06:11:42;;;;;;;2.87;2.20;;;;;;;;;;4998629;28;20547;-74
2022/04/16 06:14:09;;;;;;;3.33;2.73;;;;;;;;;;4993435;28;20864;-75
2022/04/16 06:16:35;;;;;;;3.30;2.70;;;;;;;;;;5004548;28;20459;-75
2022/04/16 06:19:01;;;;;;;3.40;2.43;;;;;;;;;;4986773;28;20440;-74
2022/04/16 06:21:27;;;;;;;3.33;2.77;;;;;;;;;;5009892;28;20582;-74
2022/04/16 06:23:53;;;;;;;2.90;2.60;;;;;;;;;;5019180;28;20444;-76
2022/04/16 06:26:19;;;;;;;3.40;3.00;;;;;;;;;;4979390;28;20464;-75
2022/04/16 06:28:46;;;;;;;3.63;2.57;;;;;;;;;;4988161;28;20891;-76
2022/04/16 06:31:43;;;;;;;4.60;2.97;;;;;;;;;;4991674;28;20467;-75
2022/04/16 06:37:34;;;;;;;3.40;2.40;;;;;;;;;;4994050;28;20491;-75
2022/04/16 06:46:46;;;;;;;4.07;3.47;;;;;;;;;;5004375;28;20459;-76
2022/04/16 06:49:24;;;;;;;3.77;3.37;;;;;;;;;;4996351;28;20440;-74
2022/04/16 06:51:54;;;;;;;5.33;2.90;;;;;;;;;;4981400;28;20472;-75
2022/04/16 06:55:02;;;;;;;4.23;3.07;;;;;;;;;;5003119;28;20473;-74
2022/04/16 06:57:34;;;;;;;4.70;3.43;;;;;;;;;;4991278;28;20462;-75
2022/04/16 07:00:29;;;;;;;;;;;;;;;;;;;;;
2022/04/16 07:02:56;;;;;;;4.93;3.77;;;;;;;;;;5001334;28;20456;-74
2022/04/16 07:05:21;;;;;;;4.53;3.67;;;;;;;;;;4997173;28;20856;-74
2022/04/16 07:07:54;;;;;;;5.10;3.70;;;;;;;;;;4981331;28;20650;-75
2022/04/16 07:10:20;;;;;;;5.53;3.40;;;;;;;;;;5003840;28;20491;-74
2022/04/16 07:12:50;;;;;;;6.90;3.60;;;;;;;;;;4967645;28;20468;-74
2022/04/16 07:15:16;;;;;;;4.13;3.27;;;;;;;;;;5000278;28;20426;-73
2022/04/16 07:17:45;;;;;;;4.43;3.43;;;;;;;;;;4977040;28;20952;-74
2022/04/16 07:20:16;;;;;;;4.90;3.67;;;;;;;;;;4974532;28;20459;-75
2022/04/16 07:22:45;;;;;;;5.83;3.90;;;;;;;;;;5015556;28;20524;-75
2022/04/16 07:25:40;;;;;;;4.90;3.90;;;;;;;;;;4993500;28;20445;-76
2022/04/16 07:28:21;;;;;;;4.50;3.53;;;;;;;;;;5023198;28;20435;-75
2022/04/16 07:30:53;;;;;;;5.43;4.20;;;;;;;;;;4994331;28;20827;-74
2022/04/16 07:33:19;;;;;;;5.20;3.87;;;;;;;;;;4999654;28;20919;-75
2022/04/16 07:35:45;;;;;;;8.33;4.10;;;;;;;;;;4991463;28;21158;-74
2022/04/16 07:38:23;;;;;;;5.90;3.60;;;;;;;;;;5003215;28;20936;-73
2022/04/16 07:41:13;;;;;;;5.10;4.00;;;;;;;;;;4995418;28;20439;-75
2022/04/16 07:43:39;;;;;;;5.23;3.70;;;;;;;;;;5014289;28;20511;-73
2022/04/16 07:46:05;;;;;;;4.50;3.73;;;;;;;;;;4974175;28;20524;-75
2022/04/16 07:48:35;;;;;;;5.17;3.97;;;;;;;;;;5004545;28;20453;-74
2022/04/16 07:51:04;;;;;;;4.90;3.50;;;;;;;;;;4976167;28;20449;-75
2022/04/16 07:53:30;;;;;;;5.00;3.80;;;;;;;;;;4996833;28;20499;-75
2022/04/16 07:55:56;;;;;;;5.73;3.80;;;;;;;;;;4986643;28;20498;-74
2022/04/16 07:58:47;;;;;;;4.60;3.63;;;;;;;;;;5000664;28;20462;-73
2022/04/16 08:01:38;;;;;;;6.30;4.53;;;;;;;;;;4998842;28;20185;-73
2022/04/16 08:04:05;;;;;;;4.30;3.90;;;;;;;;;;5017867;28;20595;-74
2022/04/16 08:06:33;;;;;;;5.10;4.03;;;;;;;;;;4984222;28;20823;-76
2022/04/16 08:09:03;;;;;;;5.57;3.80;;;;;;;;;;5010016;28;20531;-74
2022/04/16 08:11:30;;;;;;;7.10;5.00;;;;;;;;;;4999872;28;20455;-74
2022/04/16 08:13:59;;;;;;;5.10;3.93;;;;;;;;;;5011591;28;20868;-75
2022/04/16 08:16:25;;;;;;;4.97;4.40;;;;;;;;;;5005173;28;20955;-74
2022/04/16 08:19:10;;;;;;;6.30;4.27;;;;;;;;;;4978784;28;20445;-76
2022/04/16 08:21:36;;;;;;;4.87;3.60;;;;;;;;;;5002647;28;20448;-75
2022/04/16 08:24:13;;;;;;;7.40;5.03;;;;;;;;;;4996417;28;20793;-75
2022/04/16 08:26:44;;;;;;;4.87;4.07;;;;;;;;;;5007151;28;20433;-76
2022/04/16 08:29:10;;;;;;;5.23;3.60;;;;;;;;;;4972133;28;20467;-73
2022/04/16 08:31:36;;;;;;;8.70;4.40;;;;;;;;;;4993263;28;20668;-74
2022/04/16 08:34:02;;;;;;;6.07;4.57;;;;;;;;;;4963505;28;20503;-74
2022/04/16 08:36:28;;;;;;;6.93;4.87;;;;;;;;;;4996170;28;20450;-74
2022/04/16 08:38:54;;;;;;;6.00;4.77;;;;;;;;;;4973967;28;20631;-72
2022/04/16 08:41:20;;;;;;;6.33;5.03;;;;;;;;;;5013371;28;20440;-75
2022/04/16 08:43:49;;;;;;;6.00;4.53;;;;;;;;;;4978661;28;20506;-73
2022/04/16 08:46:16;;;;;;;5.50;4.00;;;;;;;;;;5006051;28;20478;-72
2022/04/16 08:48:56;;;;;;;5.80;4.30;;;;;;;;;;5016965;28;20444;-71
2022/04/16 08:51:23;;;;;;;6.93;5.20;;;;;;;;;;5002337;28;20436;-75
2022/04/16 08:53:49;;;;;;;6.57;4.83;;;;;;;;;;4976485;28;20498;-74
2022/04/16 08:56:15;;;;;;;6.90;4.80;;;;;;;;;;5007253;28;20788;-75
2022/04/16 08:58:42;;;;;;;5.40;4.60;;;;;;;;;;4999772;28;20471;-73
2022/04/16 09:01:08;;;;;;;5.77;4.47;;;;;;;;;;5012427;28;20447;-73
2022/04/16 09:03:35;;;;;;;6.50;5.20;;;;;;;;;;4993097;28;20531;-73
2022/04/16 09:06:01;;;;;;;6.63;5.00;;;;;;;;;;5010628;28;20524;-71
2022/04/16 09:08:29;;;;;;;7.10;4.27;;;;;;;;;;4982235;28;20456;-74
2022/04/16 09:11:11;;;;;;;5.60;4.20;;;;;;;;;;5009881;28;20443;-72
2022/04/16 09:13:41;;;;;;;5.67;4.67;;;;;;;;;;4992347;28;20516;-70
2022/04/16 09:16:12;;;;;;;7.73;5.40;;;;;;;;;;5036417;28;20527;-74
2022/04/16 09:18:44;;;;;;;4.73;4.17;;;;;;;;;;5006975;28;20443;-74
2022/04/16 09:21:12;;;;;;;7.97;5.43;;;;;;;;;;5011803;28;20505;-73
2022/04/16 09:23:52;;;;;;;6.77;5.30;;;;;;;;;;4980022;28;20459;-74
2022/04/16 09:26:28;;;;;;;6.40;5.60;;;;;;;;;;4999810;28;20787;-74
2022/04/16 09:29:06;;;;;;;8.13;5.30;;;;;;;;;;5001524;28;20455;-73
2022/04/16 09:31:33;;;;;;;8.80;6.10;;;;;;;;;;5003595;28;20432;-74
2022/04/16 09:33:59;;;;;;;7.87;5.67;;;;;;;;;;4971525;28;20507;-73
2022/04/16 09:36:26;;;;;;;7.87;5.37;;;;;;;;;;5010734;28;20806;-74
2022/04/16 09:39:25;;;;;;;10.63;6.77;;;;;;;;;;4988278;28;20456;-74
2022/04/16 09:41:51;;;;;;;10.03;6.80;;;;;;;;;;5004978;28;20521;-75
2022/04/16 09:44:21;;;;;;;6.93;4.97;;;;;;;;;;5002403;28;20455;-73
2022/04/16 09:46:47;;;;;;;9.23;6.83;;;;;;;;;;5002993;28;20440;-74
2022/04/16 09:49:13;;;;;;;9.10;6.03;;;;;;;;;;4981666;28;20432;-74
2022/04/16 09:51:42;;;;;;;8.40;5.50;;;;;;;;;;5011841;28;20444;-74
2022/04/16 09:54:09;;;;;;;10.43;6.63;;;;;;;;;;4989344;28;20486;-74
2022/04/16 09:56:36;;;;;;;7.13;5.73;;;;;;;;;;5022198;28;20542;-74
2022/04/16 09:59:04;;;;;;;10.80;6.50;;;;;;;;;;4984695;28;20464;-74
2022/04/16 10:01:54;;;;;;;7.37;5.47;;;;;;;;;;5006975;28;20871;-74
2022/04/16 10:04:20;;;;;;;7.33;5.60;;;;;;;;;;5001666;28;20451;-74
2022/04/16 10:06:47;;;;;;;7.30;5.47;;;;;;;;;;4982292;28;20451;-74
2022/04/16 10:09:14;;;;;;;7.30;5.90;;;;;;;;;;5011139;28;20451;-74
2022/04/16 10:14:37;;;;;;;5.83;5.00;;;;;;;;;;5005273;28;20496;-74
2022/04/16 10:17:03;;;;;;;4.93;4.10;;;;;;;;;;4998361;28;20446;-76
2022/04/16 10:20:00;;;;;;;7.53;4.53;;;;;;;;;;5009831;28;20539;-75
2022/04/16 10:22:26;;;;;;;6.70;5.50;;;;;;;;;;4983358;28;20451;-74
2022/04/16 10:24:58;;;;;;;6.73;5.30;;;;;;;;;;5004421;28;20421;-75
2022/04/16 10:27:27;;;;;;;6.47;5.13;;;;;;;;;;5003500;28;20444;-74
2022/04/16 10:30:08;;;;;;;6.00;4.90;;;;;;;;;;5004283;28;20460;-74
2022/04/16 10:32:39;;;;;;;7.87;5.47;;;;;;;;;;4977623;28;20463;-73
2022/04/16 10:35:30;;;;;;;7.10;5.13;;;;;;;;;;4998603;28;20436;-73
2022/04/16 10:37:56;;;;;;;8.20;5.83;;;;;;;;;;5004220;28;20423;-75
2022/04/16 10:40:23;;;;;;;6.30;5.10;;;;;;;;;;4984468;28;20447;-74
2022/04/16 10:42:53;;;;;;;8.40;5.27;;;;;;;;;;4997461;28;20433;-73
2022/04/16 10:45:21;;;;;;;7.33;5.10;;;;;;;;;;4971530;28;20447;-74
2022/04/16 10:47:51;;;;;;;7.73;5.80;;;;;;;;;;5014440;28;20441;-75
2022/04/16 10:50:18;;;;;;;9.00;5.90;;;;;;;;;;5014635;28;20448;-73
2022/04/16 10:52:52;;;;;;;8.13;6.23;;;;;;;;;;4993224;28;21007;-74
2022/04/16 10:55:20;;;;;;;8.27;5.90;;;;;;;;;;4968791;28;20884;-74
2022/04/16 10:57:55;;;;;;;8.57;5.17;;;;;;;;;;4993371;28;20459;-75
2022/04/16 11:00:37;;;;;;;8.33;5.70;;;;;;;;;;4976571;28;20452;-74
2022/04/16 11:06:07;;;;;;;6.20;4.17;;;;;;;;;;4982856;28;20518;-74
2022/04/16 11:08:52;;;;;;;7.83;4.53;;;;;;;;;;4978458;28;20483;-76
2022/04/16 11:11:18;;;;;;;5.07;3.70;;;;;;;;;;4997138;28;21042;-74
2022/04/16 11:14:05;;;;;;;5.60;4.40;;;;;;;;;;5000038;28;20582;-75
2022/04/16 11:16:32;;;;;;;6.17;4.33;;;;;;;;;;4999507;28;20451;-73
2022/04/16 11:18:58;;;;;;;5.13;4.10;;;;;;;;;;4988720;28;20438;-76
2022/04/16 11:21:29;;;;;;;5.10;3.33;;;;;;;;;;4996946;28;20449;-74
2022/04/16 11:24:15;;;;;;;6.23;3.00;;;;;;;;;;4995560;28;20432;-75
2022/04/16 11:34:57;;;;;;;7.63;4.40;;;;;;;;;;4985103;28;20454;-74
2022/04/16 11:37:23;;;;;;;6.77;3.83;;;;;;;;;;4998902;28;20831;-74
2022/04/16 11:40:06;;;;;;;6.00;4.43;;;;;;;;;;4966606;28;21016;-73
2022/04/16 11:42:34;;;;;;;5.13;4.20;;;;;;;;;;4980051;28;20990;-75
2022/04/16 11:48:04;;;;;;;5.60;3.87;;;;;;;;;;4984128;28;20534;-71
2022/04/16 11:50:30;;;;;;;4.20;3.60;;;;;;;;;;4984309;28;20452;-75
2022/04/16 11:52:56;;;;;;;4.03;2.97;;;;;;;;;;4989546;28;20479;-74
2022/04/16 11:55:48;;;;;;;4.50;3.20;;;;;;;;;;5007212;28;20540;-74
2022/04/16 11:58:30;;;;;;;5.43;4.33;;;;;;;;;;4998952;28;20451;-73
2022/04/16 12:00:56;;;;;;;4.83;3.90;;;;;;;;;;5000886;28;20436;-73
2022/04/16 12:03:22;;;;;;;4.67;3.13;;;;;;;;;;4992505;28;20485;-74
2022/04/16 12:05:57;;;;;;;5.73;3.93;;;;;;;;;;4973390;28;20843;-74
2022/04/16 12:08:23;;;;;;;4.00;3.60;;;;;;;;;;4998912;28;20455;-75
2022/04/16 12:10:50;;;;;;;5.27;3.60;;;;;;;;;;4998737;28;20483;-72
2022/04/16 12:13:17;;;;;;;3.87;3.30;;;;;;;;;;4967918;28;20492;-72
2022/04/16 12:15:44;;;;;;;5.70;3.63;;;;;;;;;;5001011;28;20459;-74
2022/04/16 12:24:34;;;;;;;6.10;4.20;;;;;;;;;;4954083;28;22046;-74
2022/04/16 12:29:51;;;;;;;5.10;3.97;;;;;;;;;;4962344;28;20497;-75
2022/04/16 12:32:31;;;;;;;5.23;3.60;;;;;;;;;;4989584;28;20443;-76
2022/04/16 12:34:57;;;;;;;4.80;3.43;;;;;;;;;;4969575;28;20448;-74
2022/04/16 12:37:23;;;;;;;6.20;4.10;;;;;;;;;;5020454;28;20457;-73
2022/04/16 12:40:23;;;;;;;4.90;3.70;;;;;;;;;;4978094;28;20458;-75
2022/04/16 12:42:49;;;;;;;7.17;4.20;;;;;;;;;;5007110;28;20451;-74
2022/04/16 12:45:15;;;;;;;4.40;3.83;;;;;;;;;;4970049;28;23762;-75
2022/04/16 12:47:41;;;;;;;6.10;4.80;;;;;;;;;;4993338;28;20439;-76
2022/04/16 12:50:09;;;;;;;6.20;3.97;;;;;;;;;;4978596;28;20445;-74
2022/04/16 12:52:35;;;;;;;6.27;4.47;;;;;;;;;;4998255;28;20958;-74
2022/04/16 12:55:01;;;;;;;4.30;3.90;;;;;;;;;;5001624;28;21039;-75
2022/04/16 12:57:32;;;;;;;4.60;3.73;;;;;;;;;;5002635;28;20444;-75
2022/04/16 13:00:25;;;;;;;4.90;3.70;;;;;;;;;;4991591;28;21159;-75
2022/04/16 13:02:51;;;;;;;6.33;4.30;;;;;;;;;;4960537;28;20790;-75
2022/04/16 13:05:17;;;;;;;6.63;3.87;;;;;;;;;;4997360;28;20460;-74
2022/04/16 13:07:44;;;;;;;4.90;3.73;;;;;;;;;;4997156;28;20437;-75
2022/04/16 13:10:13;;;;;;;6.60;4.20;;;;;;;;;;5002198;28;20460;-74
2022/04/16 13:12:39;;;;;;;5.30;3.80;;;;;;;;;;4952833;28;20499;-75
2022/04/16 13:15:09;;;;;;;6.40;4.10;;;;;;;;;;4979723;28;20494;-75
2022/04/16 13:17:52;;;;;;;4.97;4.37;;;;;;;;;;4968563;28;20562;-75
2022/04/16 13:20:18;;;;;;;4.17;3.33;;;;;;;;;;4992702;28;20440;-77
2022/04/16 13:22:46;;;;;;;6.57;4.13;;;;;;;;;;4956578;28;20445;-75
2022/04/16 13:25:13;;;;;;;4.60;3.97;;;;;;;;;;4995348;28;20980;-74
2022/04/16 13:27:39;;;;;;;3.70;3.27;;;;;;;;;;4986827;28;20475;-74
2022/04/16 13:30:06;;;;;;;5.37;3.83;;;;;;;;;;4997570;28;20492;-75
2022/04/16 13:32:32;;;;;;;5.37;4.20;;;;;;;;;;4963158;28;20803;-75
2022/04/16 13:35:09;;;;;;;4.90;3.43;;;;;;;;;;4988277;28;20811;-75
2022/04/16 13:37:35;;;;;;;4.10;3.27;;;;;;;;;;5012779;28;20527;-76
2022/04/16 13:42:46;;;;;;;3.33;3.03;;;;;;;;;;4972925;28;20813;-75
2022/04/16 13:45:14;;;;;;;4.83;3.70;;;;;;;;;;5000793;28;20510;-77
2022/04/16 13:47:40;;;;;;;4.80;3.63;;;;;;;;;;4967246;28;20445;-74
2022/04/16 13:50:09;;;;;;;3.00;2.70;;;;;;;;;;5003924;28;20455;-73
2022/04/16 13:52:37;;;;;;;4.07;3.10;;;;;;;;;;4964989;28;20472;-76
2022/04/16 13:55:04;;;;;;;4.23;3.37;;;;;;;;;;5002687;28;20467;-75
2022/04/16 13:57:30;;;;;;;3.80;2.93;;;;;;;;;;4973895;28;20743;-75
2022/04/16 14:00:12;;;;;;;6.47;4.27;;;;;;;;;;4996898;28;20968;-74
2022/04/16 14:02:39;;;;;;;5.13;3.80;;;;;;;;;;4968181;28;20444;-74
2022/04/16 14:07:50;;;;;;;6.77;3.37;;;;;;;;;;4996050;28;21228;-74
2022/04/16 14:10:17;;;;;;;3.90;2.97;;;;;;;;;;4968399;28;20983;-73
2022/04/16 14:12:45;;;;;;;4.40;3.20;;;;;;;;;;4990743;28;20981;-73
2022/04/16 14:15:11;;;;;;;3.63;3.20;;;;;;;;;;4963551;28;20732;-74
2022/04/16 14:17:37;;;;;;;5.63;3.40;;;;;;;;;;5010888;28;20574;-74
2022/04/16 14:20:10;;;;;;;5.30;2.87;;;;;;;;;;4997656;28;20483;-72
2022/04/16 14:22:36;;;;;;;8.63;3.70;;;;;;;;;;5005949;28;20445;-74
2022/04/16 14:25:02;;;;;;;4.10;3.47;;;;;;;;;;4987716;28;20458;-73
2022/04/16 14:27:29;;;;;;;4.10;2.93;;;;;;;;;;4998501;28;20444;-73
2022/04/16 14:29:57;;;;;;;4.47;3.47;;;;;;;;;;4955321;28;20869;-73
2022/04/16 14:32:36;;;;;;;3.33;2.90;;;;;;;;;;4999007;28;20432;-73
2022/04/16 14:35:02;;;;;;;4.20;3.67;;;;;;;;;;4968082;28;20820;-74
2022/04/16 14:37:29;;;;;;;3.93;3.07;;;;;;;;;;4991558;28;20444;-74
2022/04/16 14:39:55;;;;;;;3.70;3.00;;;;;;;;;;4966823;28;20525;-75
2022/04/16 14:42:21;;;;;;;4.50;3.10;;;;;;;;;;4998853;28;21065;-75
2022/04/16 14:45:26;;;;;;;4.27;3.20;;;;;;;;;;4975852;28;20444;-75
2022/04/16 14:47:53;;;;;;;4.90;3.13;;;;;;;;;;4941086;28;20514;-74
2022/04/16 14:53:23;;;;;;;6.60;3.37;;;;;;;;;;4983776;28;20475;-74
2022/04/16 14:55:49;;;;;;;3.73;3.27;;;;;;;;;;4968533;28;21366;-73
2022/04/16 14:58:15;;;;;;;4.23;3.30;;;;;;;;;;4998899;28;20527;-73
2022/04/16 15:00:42;;;;;;;4.40;3.17;;;;;;;;;;4980342;28;20435;-75
2022/04/16 15:06:05;;;;;;;7.00;3.77;;;;;;;;;;4978806;28;21017;-72
2022/04/16 15:11:35;;;;;;;4.07;3.20;;;;;;;;;;4994950;28;20566;-75
2022/04/16 15:14:15;;;;;;;5.20;3.40;;;;;;;;;;4972311;28;21260;-76
2022/04/16 15:16:41;;;;;;;4.93;2.80;;;;;;;;;;5023391;28;20457;-75
2022/04/16 15:19:20;;;;;;;4.20;2.77;;;;;;;;;;4988421;28;20456;-75
2022/04/16 15:21:47;;;;;;;5.83;3.03;;;;;;;;;;5031761;28;20437;-74
2022/04/16 15:24:13;;;;;;;3.77;3.43;;;;;;;;;;4980975;28;20459;-72
2022/04/16 15:26:39;;;;;;;3.43;3.00;;;;;;;;;;4995555;28;20436;-72
2022/04/16 15:29:11;;;;;;;3.60;2.80;;;;;;;;;;4975950;28;23410;-73
2022/04/16 15:31:40;;;;;;;4.97;2.53;;;;;;;;;;5003428;28;20444;-70
2022/04/16 15:34:15;;;;;;;4.27;3.17;;;;;;;;;;4992756;28;21058;-72
2022/04/16 15:39:30;;;;;;;3.20;2.60;;;;;;;;;;4985248;28;21439;-71
2022/04/16 15:42:01;;;;;;;4.00;3.20;;;;;;;;;;4996369;28;20901;-73
2022/04/16 15:44:37;;;;;;;3.83;2.80;;;;;;;;;;4962232;28;20199;-71
2022/04/16 15:47:03;;;;;;;4.20;2.90;;;;;;;;;;4996364;28;21025;-72
2022/04/16 15:49:30;;;;;;;4.70;3.37;;;;;;;;;;4994488;28;20820;-73
2022/04/16 15:51:56;;;;;;;4.37;3.23;;;;;;;;;;4997454;28;20505;-73
2022/04/16 15:54:35;;;;;;;3.70;2.77;;;;;;;;;;4988001;28;20963;-71
2022/04/16 15:57:01;;;;;;;5.30;3.47;;;;;;;;;;5012454;28;20440;-72
2022/04/16 15:59:32;;;;;;;5.53;3.13;;;;;;;;;;4986899;28;21179;-72
2022/04/16 16:01:59;;;;;;;6.00;4.57;;;;;;;;;;4993456;28;20450;-71
2022/04/16 16:07:09;;;;;;;5.83;3.33;;;;;;;;;;4997498;28;20442;-72
2022/04/16 16:09:35;;;;;;;4.13;2.97;;;;;;;;;;4989988;28;20433;-72
2022/04/16 16:14:53;;;;;;;3.53;2.90;;;;;;;;;;4977508;28;20514;-72
2022/04/16 16:17:20;;;;;;;3.57;2.83;;;;;;;;;;4994455;28;20782;-72
2022/04/16 16:19:47;;;;;;;5.17;2.80;;;;;;;;;;4992592;28;20452;-71